createdAt,value
2019-03-21T00:01:19.302Z,16.90
2019-03-21T00:04:21.681Z,16.80
2019-03-21T00:07:23.966Z,16.80
2019-03-21T00:11:21.034Z,16.70
2019-03-21T00:14:32.904Z,16.70
2019-03-21T00:17:42.593Z,16.60
2019-03-21T00:20:46.061Z,16.60
2019-03-21T00:23:48.420Z,16.50
2019-03-21T00:26:50.729Z,16.50
2019-03-21T00:29:53.026Z,16.40
2019-03-21T00:32:55.673Z,16.30
2019-03-21T00:35:57.899Z,16.30
2019-03-21T00:39:00.201Z,16.20
2019-03-21T00:42:02.567Z,16.20
2019-03-21T00:45:05.270Z,16.10
2019-03-21T00:48:10.188Z,16.10
2019-03-21T00:51:12.510Z,16.00
2019-03-21T00:54:14.762Z,16.00
2019-03-21T00:57:17.019Z,15.90
2019-03-21T01:00:32.727Z,15.90
2019-03-21T01:03:35.003Z,15.90
2019-03-21T01:06:37.227Z,15.80
2019-03-21T01:09:40.298Z,15.70
2019-03-21T01:12:42.604Z,15.70
2019-03-21T01:15:44.842Z,15.60
2019-03-21T01:18:47.186Z,15.60
2019-03-21T01:21:49.497Z,15.50
2019-03-21T01:24:51.680Z,15.40
2019-03-21T01:27:53.962Z,15.40
2019-03-21T01:30:56.186Z,15.40
2019-03-21T01:33:58.411Z,15.30
2019-03-21T01:37:00.646Z,15.30
2019-03-21T01:40:02.833Z,15.20
2019-03-21T01:43:05.091Z,15.10
2019-03-21T01:46:10.531Z,15.10
2019-03-21T01:49:12.704Z,15.10
2019-03-21T01:52:14.910Z,15.00
2019-03-21T01:55:17.113Z,14.90
2019-03-21T01:58:19.386Z,14.90
2019-03-21T02:01:21.631Z,14.80
2019-03-21T02:04:23.800Z,14.80
2019-03-21T02:07:26.161Z,14.70
2019-03-21T02:10:28.420Z,14.70
2019-03-21T02:13:30.596Z,14.60
2019-03-21T02:16:32.770Z,14.60
2019-03-21T02:19:34.994Z,14.50
2019-03-21T02:22:37.210Z,14.50
2019-03-21T02:25:39.414Z,14.40
2019-03-21T02:28:41.588Z,14.40
2019-03-21T02:31:43.784Z,14.30
2019-03-21T02:34:45.994Z,14.30
2019-03-21T02:37:48.227Z,14.20
2019-03-21T02:40:50.587Z,14.20
2019-03-21T02:43:52.841Z,14.10
2019-03-21T02:46:54.994Z,14.10
2019-03-21T02:49:57.161Z,14.00
2019-03-21T02:52:59.461Z,14.00
2019-03-21T02:56:01.637Z,14.00
2019-03-21T02:59:04.314Z,13.90
2019-03-21T03:02:06.500Z,13.90
2019-03-21T03:05:12.478Z,13.90
2019-03-21T03:08:14.663Z,13.80
2019-03-21T03:11:17.350Z,13.70
2019-03-21T03:14:20.487Z,13.70
2019-03-21T03:17:22.668Z,13.60
2019-03-21T03:20:24.871Z,13.60
2019-03-21T03:23:28.209Z,13.60
2019-03-21T03:26:30.379Z,13.60
2019-03-21T03:29:32.654Z,13.50
2019-03-21T03:32:35.882Z,13.40
2019-03-21T03:35:38.002Z,13.40
2019-03-21T03:38:40.156Z,13.40
2019-03-21T03:41:42.346Z,13.30
2019-03-21T03:44:44.555Z,13.30
2019-03-21T03:47:46.714Z,13.30
2019-03-21T03:50:48.888Z,13.20
2019-03-21T03:53:51.069Z,13.20
2019-03-21T03:56:53.219Z,13.10
2019-03-21T03:59:55.362Z,13.10
2019-03-21T04:02:57.575Z,13.00
2019-03-21T04:06:00.912Z,13.00
2019-03-21T04:09:04.005Z,12.90
2019-03-21T04:12:06.123Z,12.90
2019-03-21T04:15:09.404Z,12.80
2019-03-21T04:18:11.596Z,12.90
2019-03-21T04:21:13.865Z,12.80
2019-03-21T04:24:16.005Z,12.70
2019-03-21T04:27:18.105Z,12.70
2019-03-21T04:30:20.281Z,12.70
2019-03-21T04:33:23.139Z,12.60
2019-03-21T04:36:25.553Z,12.60
2019-03-21T04:39:27.694Z,12.50
2019-03-21T04:42:29.820Z,12.50
2019-03-21T04:45:32.014Z,12.50
2019-03-21T04:48:34.153Z,12.50
2019-03-21T04:51:36.337Z,12.40
2019-03-21T04:54:39.438Z,12.40
2019-03-21T04:57:42.629Z,12.40
2019-03-21T05:00:44.867Z,12.30
2019-03-21T05:03:47.001Z,12.20
2019-03-21T05:06:49.179Z,12.20
2019-03-21T05:09:51.406Z,12.20
2019-03-21T05:12:53.520Z,12.10
2019-03-21T05:15:55.680Z,12.10
2019-03-21T05:18:58.696Z,12.10
2019-03-21T05:22:00.970Z,12.00
2019-03-21T05:25:03.129Z,12.00
2019-03-21T05:28:05.238Z,12.00
2019-03-21T05:31:13.862Z,11.90
2019-03-21T05:34:16.018Z,11.90
2019-03-21T05:37:18.129Z,11.90
2019-03-21T05:40:20.351Z,11.80
2019-03-21T05:43:27.771Z,11.80
2019-03-21T05:46:30.171Z,11.80
2019-03-21T05:49:32.389Z,11.80
2019-03-21T05:52:34.502Z,11.70
2019-03-21T05:55:36.869Z,11.80
2019-03-21T05:58:39.018Z,11.70
2019-03-21T06:01:41.149Z,11.70
2019-03-21T06:04:43.291Z,11.70
2019-03-21T06:07:57.514Z,11.70
2019-03-21T06:10:59.733Z,11.60
2019-03-21T06:14:01.878Z,11.60
2019-03-21T06:17:04.046Z,11.70
2019-03-21T06:20:42.294Z,11.70
2019-03-21T06:24:47.146Z,11.70
2019-03-21T06:27:49.296Z,11.70
2019-03-21T06:30:51.454Z,11.60
2019-03-21T06:33:53.616Z,11.50
2019-03-21T06:36:55.812Z,11.50
2019-03-21T06:39:58.168Z,11.50
2019-03-21T06:43:00.326Z,11.40
2019-03-21T06:46:02.527Z,11.40
2019-03-21T06:49:04.687Z,11.50
2019-03-21T06:52:07.101Z,11.60
2019-03-21T06:55:09.293Z,11.60
2019-03-21T06:58:11.439Z,11.70
2019-03-21T07:01:13.600Z,11.70
2019-03-21T07:04:15.806Z,11.80
2019-03-21T07:07:17.946Z,11.80
2019-03-21T07:10:21.181Z,11.90
2019-03-21T07:13:23.369Z,11.90
2019-03-21T07:16:25.656Z,11.90
2019-03-21T07:19:27.849Z,12.00
2019-03-21T07:22:30.053Z,12.00
2019-03-21T07:25:32.299Z,12.10
2019-03-21T07:28:34.493Z,12.10
2019-03-21T07:31:36.616Z,12.20
2019-03-21T07:34:38.747Z,12.20
2019-03-21T07:37:40.967Z,12.30
2019-03-21T07:40:43.136Z,12.40
2019-03-21T07:43:45.399Z,12.50
2019-03-21T07:46:47.598Z,12.60
2019-03-21T07:49:49.814Z,12.60
2019-03-21T07:52:51.978Z,12.70
2019-03-21T07:55:54.167Z,12.80
2019-03-21T07:58:57.835Z,12.90
2019-03-21T08:02:00.195Z,12.90
2019-03-21T08:05:02.337Z,13.00
2019-03-21T08:08:04.834Z,13.10
2019-03-21T08:11:07.076Z,13.20
2019-03-21T08:14:09.304Z,13.20
2019-03-21T08:17:11.533Z,13.30
2019-03-21T08:20:14.271Z,13.40
2019-03-21T08:23:16.427Z,13.40
2019-03-21T08:26:18.629Z,13.50
2019-03-21T08:29:20.861Z,13.60
2019-03-21T08:32:23.060Z,13.70
2019-03-21T08:35:25.243Z,13.80
2019-03-21T08:38:27.463Z,13.90
2019-03-21T08:41:30.703Z,14.00
2019-03-21T08:44:32.941Z,14.00
2019-03-21T08:47:37.106Z,14.10
2019-03-21T08:50:39.106Z,14.20
2019-03-21T08:53:41.313Z,14.40
2019-03-21T08:56:43.529Z,14.40
2019-03-21T08:59:47.984Z,14.50
2019-03-21T09:02:50.811Z,14.60
2019-03-21T09:05:53.004Z,14.80
2019-03-21T09:08:55.201Z,14.90
2019-03-21T09:11:57.405Z,15.00
2019-03-21T09:14:59.583Z,15.10
2019-03-21T09:18:01.844Z,15.10
2019-03-21T09:21:04.055Z,15.30
2019-03-21T09:24:06.210Z,15.30
2019-03-21T09:27:08.503Z,15.40
2019-03-21T09:30:10.913Z,15.50
2019-03-21T09:33:13.099Z,15.60
2019-03-21T09:36:15.348Z,15.70
2019-03-21T09:39:17.510Z,15.90
2019-03-21T09:42:19.734Z,16.00
2019-03-21T09:45:21.949Z,16.10
2019-03-21T09:48:24.210Z,16.20
2019-03-21T09:51:30.896Z,16.30
2019-03-21T09:54:30.304Z,16.40
2019-03-21T09:57:32.614Z,16.60
2019-03-21T10:00:36.414Z,16.70
2019-03-21T10:03:38.619Z,16.80
2019-03-21T10:06:40.896Z,17.00
2019-03-21T10:09:43.117Z,17.10
2019-03-21T10:12:45.359Z,17.20
2019-03-21T10:15:47.560Z,17.40
2019-03-21T10:18:49.801Z,17.50
2019-03-21T10:21:52.077Z,17.70
2019-03-21T10:24:54.303Z,17.90
2019-03-21T10:27:56.577Z,18.00
2019-03-21T10:30:58.801Z,18.20
2019-03-21T10:34:01.050Z,18.40
2019-03-21T10:37:03.314Z,18.50
2019-03-21T10:40:05.972Z,18.70
2019-03-21T10:43:10.438Z,18.90
2019-03-21T10:46:12.400Z,19.10
2019-03-21T10:49:14.631Z,19.30
2019-03-21T10:52:16.912Z,19.40
2019-03-21T10:55:19.167Z,19.60
2019-03-21T10:58:21.396Z,19.80
2019-03-21T11:01:23.642Z,20.00
2019-03-21T11:04:25.853Z,20.20
2019-03-21T11:07:24.892Z,20.40
2019-03-21T11:10:27.148Z,20.60
2019-03-21T11:13:29.371Z,20.40
2019-03-21T11:16:31.686Z,20.30
2019-03-21T11:19:33.925Z,20.30
2019-03-21T11:22:36.193Z,20.40
2019-03-21T11:25:38.523Z,20.50
2019-03-21T11:28:40.762Z,20.50
2019-03-21T11:31:43.081Z,20.60
2019-03-21T11:34:45.303Z,20.80
2019-03-21T11:37:47.530Z,20.90
2019-03-21T11:40:49.783Z,20.90
2019-03-21T11:43:52.006Z,21.10
2019-03-21T11:46:54.231Z,21.10
2019-03-21T11:49:56.437Z,21.30
2019-03-21T11:52:58.652Z,21.40
2019-03-21T11:56:00.916Z,21.50
2019-03-21T11:59:03.143Z,21.70
2019-03-21T12:02:05.382Z,21.90
2019-03-21T12:05:07.782Z,21.90
2019-03-21T12:08:10.098Z,22.20
2019-03-21T12:11:12.365Z,22.40
2019-03-21T12:14:14.619Z,22.50
2019-03-21T12:17:16.879Z,22.70
2019-03-21T12:20:37.515Z,23.10
2019-03-21T12:23:39.740Z,23.20
2019-03-21T12:26:41.965Z,23.40
2019-03-21T12:29:44.205Z,23.50
2019-03-21T12:32:46.459Z,23.60
2019-03-21T12:35:48.723Z,23.90
2019-03-21T12:38:56.944Z,24.00
2019-03-21T12:41:59.252Z,24.00
2019-03-21T12:45:01.585Z,24.20
2019-03-21T12:48:04.216Z,24.30
2019-03-21T12:51:06.454Z,24.50
2019-03-21T12:54:09.761Z,24.70
2019-03-21T12:57:12.016Z,24.80
2019-03-21T13:00:14.900Z,25.00
2019-03-21T13:03:17.127Z,25.20
2019-03-21T13:06:19.365Z,25.40
2019-03-21T13:09:21.625Z,25.60
2019-03-21T13:12:23.865Z,25.80
2019-03-21T13:15:30.098Z,26.00
2019-03-21T13:18:30.010Z,26.10
2019-03-21T13:21:32.244Z,26.30
2019-03-21T13:24:34.494Z,26.40
2019-03-21T13:27:36.722Z,26.70
2019-03-21T13:30:39.140Z,26.90
2019-03-21T13:33:41.395Z,27.00
2019-03-21T13:36:43.620Z,27.20
2019-03-21T13:39:45.883Z,27.40
2019-03-21T13:42:48.127Z,27.60
2019-03-21T13:45:50.384Z,27.80
2019-03-21T13:48:52.609Z,28.00
2019-03-21T13:51:54.835Z,28.30
2019-03-21T13:54:57.092Z,28.50
2019-03-21T13:57:59.325Z,28.70
2019-03-21T14:01:01.575Z,29.00
2019-03-21T14:04:03.804Z,29.20
2019-03-21T14:07:06.031Z,29.40
2019-03-21T14:10:08.747Z,29.60
2019-03-21T14:13:13.046Z,29.80
2019-03-21T14:16:15.323Z,30.10
2019-03-21T14:19:17.575Z,30.40
2019-03-21T14:22:21.339Z,30.50
2019-03-21T14:25:23.696Z,30.70
2019-03-21T14:28:25.951Z,30.80
2019-03-21T14:31:28.184Z,31.00
2019-03-21T14:34:30.484Z,31.20
2019-03-21T14:37:32.805Z,31.40
2019-03-21T14:40:35.141Z,31.60
2019-03-21T14:43:37.362Z,31.70
2019-03-21T14:46:39.591Z,32.00
2019-03-21T14:49:41.841Z,32.00
2019-03-21T14:52:44.082Z,32.30
2019-03-21T14:55:47.704Z,32.50
2019-03-21T14:58:50.073Z,32.40
2019-03-21T15:01:52.293Z,32.70
2019-03-21T15:04:54.549Z,32.70
2019-03-21T15:07:56.769Z,32.80
2019-03-21T15:10:59.015Z,32.80
2019-03-21T15:14:01.244Z,32.90
2019-03-21T15:17:03.540Z,32.90
2019-03-21T15:20:07.122Z,32.80
2019-03-21T15:23:09.424Z,32.70
2019-03-21T15:26:11.655Z,32.60
2019-03-21T15:29:14.102Z,32.50
2019-03-21T15:32:16.305Z,32.40
2019-03-21T15:35:19.278Z,32.30
2019-03-21T15:38:21.520Z,32.20
2019-03-21T15:41:23.755Z,32.10
2019-03-21T15:44:25.980Z,32.30
2019-03-21T15:47:28.252Z,32.30
2019-03-21T15:50:37.817Z,32.30
2019-03-21T15:53:39.667Z,32.10
2019-03-21T15:56:41.931Z,32.60
2019-03-21T15:59:44.181Z,33.60
2019-03-21T16:02:46.410Z,34.40
2019-03-21T16:05:48.697Z,34.90
2019-03-21T16:08:50.956Z,35.30
2019-03-21T16:11:53.199Z,35.50
2019-03-21T16:14:55.485Z,35.70
2019-03-21T16:17:59.377Z,35.80
2019-03-21T16:21:01.645Z,36.20
2019-03-21T16:24:05.405Z,36.50
2019-03-21T16:27:07.990Z,36.50
2019-03-21T16:30:11.667Z,36.50
2019-03-21T16:33:15.933Z,36.30
2019-03-21T16:36:25.931Z,36.30
2019-03-21T16:39:29.235Z,36.30
2019-03-21T16:42:31.502Z,36.60
2019-03-21T16:45:33.788Z,36.70
2019-03-21T16:48:36.038Z,36.70
2019-03-21T16:51:38.305Z,36.30
2019-03-21T16:54:40.651Z,36.20
2019-03-21T16:57:43.025Z,36.10
2019-03-21T17:00:45.256Z,35.50
2019-03-21T17:03:47.730Z,35.20
2019-03-21T17:06:50.107Z,35.10
2019-03-21T17:09:52.869Z,34.50
2019-03-21T17:12:55.148Z,34.20
2019-03-21T17:15:57.486Z,33.70
2019-03-21T17:19:00.772Z,33.10
2019-03-21T17:22:03.065Z,32.30
2019-03-21T17:25:05.488Z,31.50
2019-03-21T17:28:07.867Z,31.00
2019-03-21T17:31:10.097Z,30.30
2019-03-21T17:34:12.349Z,30.00
2019-03-21T17:37:14.606Z,29.70
2019-03-21T17:40:18.177Z,29.50
2019-03-21T17:43:20.493Z,29.30
2019-03-21T17:46:22.731Z,29.10
2019-03-21T17:49:24.954Z,28.90
2019-03-21T17:52:27.210Z,28.70
2019-03-21T17:55:29.428Z,28.50
2019-03-21T17:58:31.660Z,28.20
2019-03-21T18:01:33.897Z,28.00
2019-03-21T18:04:37.138Z,27.90
2019-03-21T18:07:39.401Z,27.70
2019-03-21T18:10:41.674Z,27.50
2019-03-21T18:13:43.902Z,27.30
2019-03-21T18:16:46.138Z,27.20
2019-03-21T18:19:48.434Z,27.10
2019-03-21T18:22:50.679Z,27.00
2019-03-21T18:25:52.919Z,26.80
2019-03-21T18:28:55.186Z,26.80
2019-03-21T18:31:57.415Z,26.80
2019-03-21T18:35:02.743Z,26.70
2019-03-21T18:38:05.084Z,26.60
2019-03-21T18:41:07.441Z,26.60
2019-03-21T18:44:09.691Z,26.40
2019-03-21T18:47:11.931Z,26.40
2019-03-21T18:50:15.400Z,26.30
2019-03-21T18:53:17.679Z,26.20
2019-03-21T18:56:19.913Z,26.10
2019-03-21T18:59:22.200Z,26.00
2019-03-21T19:02:24.399Z,25.90
2019-03-21T19:05:26.724Z,25.80
2019-03-21T19:08:29.013Z,25.70
2019-03-21T19:11:31.373Z,25.60
2019-03-21T19:14:33.620Z,25.50
2019-03-21T19:17:35.858Z,25.40
2019-03-21T19:20:38.112Z,25.30
2019-03-21T19:23:40.404Z,25.20
2019-03-21T19:26:42.636Z,25.10
2019-03-21T19:29:44.889Z,25.00
2019-03-21T19:32:47.210Z,24.90
2019-03-21T19:35:49.459Z,24.70
2019-03-21T19:38:51.732Z,24.60
2019-03-21T19:41:53.997Z,24.50
2019-03-21T19:44:56.253Z,24.50
2019-03-21T19:47:58.558Z,24.30
2019-03-21T19:51:00.821Z,24.20
2019-03-21T19:54:03.004Z,24.10
2019-03-21T19:57:05.363Z,24.00
2019-03-21T20:00:11.529Z,23.90
2019-03-21T20:03:13.940Z,23.80
2019-03-21T20:06:16.293Z,23.70
2019-03-21T20:09:18.559Z,23.60
2019-03-21T20:12:20.808Z,23.50
2019-03-21T20:15:23.132Z,23.40
2019-03-21T20:18:26.564Z,23.30
2019-03-21T20:21:28.873Z,23.20
2019-03-21T20:24:31.204Z,23.10
2019-03-21T20:27:33.554Z,23.00
2019-03-21T20:30:35.992Z,22.90
2019-03-21T20:33:38.196Z,22.80
2019-03-21T20:36:40.496Z,22.70
2019-03-21T20:39:42.804Z,22.60
2019-03-21T20:42:46.105Z,22.50
2019-03-21T20:45:48.364Z,22.40
2019-03-21T20:48:47.349Z,22.30
2019-03-21T20:51:49.654Z,22.30
2019-03-21T20:54:51.857Z,22.10
2019-03-21T20:57:55.314Z,22.10
2019-03-21T21:00:57.539Z,22.00
2019-03-21T21:03:59.775Z,21.90
2019-03-21T21:07:02.058Z,21.80
2019-03-21T21:10:04.608Z,21.70
2019-03-21T21:13:06.921Z,21.70
2019-03-21T21:16:10.246Z,21.60
2019-03-21T21:19:14.814Z,21.50
2019-03-21T21:22:17.082Z,21.40
2019-03-21T21:25:19.417Z,21.40
2019-03-21T21:28:21.674Z,21.30
2019-03-21T21:31:23.988Z,21.20
2019-03-21T21:34:26.198Z,21.20
2019-03-21T21:37:28.437Z,21.10
2019-03-21T21:40:32.764Z,21.00
2019-03-21T21:43:35.104Z,21.00
2019-03-21T21:46:37.363Z,20.90
2019-03-21T21:49:39.603Z,20.80
2019-03-21T21:52:42.509Z,20.80
2019-03-21T21:55:44.882Z,20.70
2019-03-21T21:58:47.114Z,20.60
2019-03-21T22:01:49.393Z,20.60
2019-03-21T22:04:52.395Z,20.50
2019-03-21T22:07:59.665Z,20.40
2019-03-21T22:11:01.888Z,20.40
2019-03-21T22:14:04.106Z,20.30
2019-03-21T22:17:06.395Z,20.20
2019-03-21T22:20:09.507Z,20.20
2019-03-21T22:23:11.814Z,20.10
2019-03-21T22:26:14.071Z,20.00
2019-03-21T22:29:16.443Z,20.00
2019-03-21T22:32:18.679Z,19.90
2019-03-21T22:35:20.975Z,19.90
2019-03-21T22:38:23.317Z,19.80
2019-03-21T22:41:25.606Z,19.70
2019-03-21T22:44:27.858Z,19.70
2019-03-21T22:47:30.103Z,19.60
2019-03-21T22:50:32.339Z,19.50
2019-03-21T22:53:34.641Z,19.50
2019-03-21T22:56:41.578Z,19.40
2019-03-21T22:59:40.798Z,19.40
2019-03-21T23:02:43.029Z,19.30
2019-03-21T23:05:46.357Z,19.20
2019-03-21T23:08:48.607Z,19.10
2019-03-21T23:11:50.932Z,19.10
2019-03-21T23:14:53.163Z,19.00
2019-03-21T23:17:55.378Z,19.00
2019-03-21T23:20:57.599Z,18.90
2019-03-21T23:23:59.898Z,18.80
2019-03-21T23:27:02.205Z,18.80
2019-03-21T23:30:05.265Z,18.70
2019-03-21T23:33:07.541Z,18.60
2019-03-21T23:36:09.783Z,18.50
2019-03-21T23:39:12.128Z,18.50
2019-03-21T23:42:14.341Z,18.40
2019-03-21T23:45:16.809Z,18.40
2019-03-21T23:48:19.058Z,18.30
2019-03-21T23:51:21.248Z,18.30
2019-03-21T23:54:23.503Z,18.20
2019-03-21T23:57:25.727Z,18.20
